Alpha, Idaho
Current Conditions -  °F | °C
As of 2:39 PM on Thursday 23 Oct 2014 (Local Time) from KMYL Reporting Station
Light Rain Light Rain  
Wind Chill: 41°   Ceiling: 2300
Heat Index: 46°   Visibility: 8mi
Dew Point: 43°   Wind: 9mph
Humidity: 89%   Direction: 160°SSE
Pressure: 30.02"   Gusts: NA
Location:  44.4236°N, 115.8°W
Report Text: KMYL 232039Z AUTO 16008KT 8SM -RA SCT018 BKN023 OVC039 08/06 A3002 RMK AO2 P0004 T00780061
Loading
Personal Weather Stations






























Interactive Weather Map
Tropical Storm Tracking
New forecast layout! Learn more

10-Day Weather Forecast

Advertisements
Track Severe Weather on mobile